createdAt,value
2023-02-17T00:00:57.808Z,71.97
2023-02-17T00:03:26.050Z,62.53
2023-02-17T00:05:55.400Z,60.60
2023-02-17T00:08:23.584Z,54.30
2023-02-17T00:10:58.678Z,69.07
2023-02-17T00:13:26.667Z,73.40
2023-02-17T00:15:55.053Z,70.43
2023-02-17T00:18:23.553Z,68.90
2023-02-17T00:20:51.644Z,69.67
2023-02-17T00:23:20.850Z,71.33
2023-02-17T00:25:48.778Z,64.93
2023-02-17T00:28:16.660Z,59.07
2023-02-17T00:30:44.524Z,80.70
2023-02-17T00:33:12.365Z,64.07
2023-02-17T00:35:42.609Z,89.60
2023-02-17T00:38:10.462Z,67.10
2023-02-17T00:40:41.838Z,78.47
2023-02-17T00:43:09.706Z,63.10
2023-02-17T00:45:37.572Z,65.90
2023-02-17T00:48:05.413Z,80.63
2023-02-17T00:50:33.216Z,70.67
2023-02-17T00:53:01.040Z,82.37
2023-02-17T00:55:28.981Z,69.50
2023-02-17T00:57:58.498Z,68.20
2023-02-17T01:00:26.563Z,90.43
2023-02-17T01:02:54.507Z,72.17
2023-02-17T01:05:23.472Z,84.70
2023-02-17T01:07:51.416Z,88.87
2023-02-17T01:10:19.696Z,98.37
2023-02-17T01:12:48.531Z,80.50
2023-02-17T01:15:17.908Z,94.23
2023-02-17T01:17:45.738Z,85.87
2023-02-17T01:20:13.885Z,72.80
2023-02-17T01:22:42.086Z,86.47
2023-02-17T01:25:10.173Z,92.20
2023-02-17T01:27:38.086Z,74.60
2023-02-17T01:30:07.257Z,85.13
2023-02-17T01:32:37.978Z,66.20
2023-02-17T01:35:06.438Z,77.17
2023-02-17T01:37:36.478Z,77.17
2023-02-17T01:40:04.868Z,75.23
2023-02-17T01:42:32.779Z,74.50
2023-02-17T01:45:46.370Z,69.37
2023-02-17T01:48:19.456Z,74.83
2023-02-17T01:50:53.181Z,81.87
2023-02-17T01:53:25.743Z,73.50
2023-02-17T01:55:55.522Z,85.47
2023-02-17T01:58:25.795Z,106.93
2023-02-17T02:00:56.751Z,62.23
2023-02-17T02:03:27.339Z,66.63
2023-02-17T02:05:56.507Z,62.90
2023-02-17T02:08:24.563Z,66.80
2023-02-17T02:10:54.710Z,73.13
2023-02-17T02:13:22.957Z,66.70
2023-02-17T02:15:58.614Z,60.27
2023-02-17T02:18:40.815Z,53.23
2023-02-17T02:21:48.253Z,65.33
2023-02-17T02:24:38.843Z,65.83
2023-02-17T02:27:29.569Z,78.63
2023-02-17T02:30:36.886Z,74.03
2023-02-17T02:33:11.185Z,70.23
2023-02-17T02:35:47.345Z,63.33
2023-02-17T02:38:21.027Z,68.93
2023-02-17T02:40:55.085Z,83.57
2023-02-17T02:43:24.723Z,71.17
2023-02-17T02:45:52.705Z,75.90
2023-02-17T02:48:22.406Z,61.23
2023-02-17T02:51:02.619Z,61.43
2023-02-17T02:53:58.045Z,62.03
2023-02-17T02:56:41.983Z,66.67
2023-02-17T02:59:23.679Z,72.77
2023-02-17T03:01:58.001Z,65.50
2023-02-17T03:04:36.543Z,59.90
2023-02-17T03:07:12.205Z,66.20
2023-02-17T03:09:42.305Z,62.93
2023-02-17T03:12:13.806Z,65.20
2023-02-17T03:14:44.342Z,67.07
2023-02-17T03:17:12.729Z,69.73
2023-02-17T03:19:42.401Z,75.87
2023-02-17T03:22:18.034Z,71.37
2023-02-17T03:24:48.754Z,70.20
2023-02-17T03:27:16.715Z,60.63
2023-02-17T03:29:44.721Z,66.40
2023-02-17T03:32:12.875Z,68.60
2023-02-17T03:34:42.151Z,84.23
2023-02-17T03:37:09.975Z,71.37
2023-02-17T03:39:38.023Z,64.33
2023-02-17T03:42:05.999Z,71.10
2023-02-17T03:44:34.039Z,70.50
2023-02-17T03:47:01.953Z,75.20
2023-02-17T03:49:30.325Z,69.80
2023-02-17T03:51:59.649Z,68.43
2023-02-17T03:54:28.209Z,72.80
2023-02-17T03:56:56.121Z,64.73
2023-02-17T03:59:24.412Z,73.97
2023-02-17T04:01:52.301Z,71.00
2023-02-17T04:04:20.248Z,80.97
2023-02-17T04:06:48.166Z,71.50
2023-02-17T04:09:17.406Z,75.10
2023-02-17T04:11:45.628Z,87.77
2023-02-17T04:14:13.623Z,79.10
2023-02-17T04:16:41.779Z,71.10
2023-02-17T04:19:09.706Z,78.13
2023-02-17T04:21:37.535Z,72.67
2023-02-17T04:24:05.826Z,80.87
2023-02-17T04:26:35.106Z,80.93
2023-02-17T04:29:05.659Z,78.77
2023-02-17T04:31:33.610Z,77.17
2023-02-17T04:34:01.698Z,79.77
2023-02-17T04:36:29.861Z,75.17
2023-02-17T04:38:57.735Z,70.87
2023-02-17T04:41:25.659Z,72.53
2023-02-17T04:43:54.917Z,92.70
2023-02-17T04:46:22.799Z,78.47
2023-02-17T04:48:50.633Z,76.57
2023-02-17T04:51:18.466Z,74.80
2023-02-17T04:53:46.299Z,67.80
2023-02-17T04:56:14.504Z,61.70
2023-02-17T04:58:42.508Z,60.60
2023-02-17T05:01:11.919Z,68.97
2023-02-17T05:03:39.891Z,63.40
2023-02-17T05:06:08.530Z,64.33
2023-02-17T05:08:36.448Z,57.90
2023-02-17T05:11:04.461Z,58.50
2023-02-17T05:13:33.158Z,70.20
2023-02-17T05:16:01.126Z,67.57
2023-02-17T05:18:30.440Z,66.60
2023-02-17T05:20:58.560Z,65.50
2023-02-17T05:23:26.546Z,74.77
2023-02-17T05:25:54.482Z,62.07
2023-02-17T05:28:22.415Z,76.60
2023-02-17T05:30:51.080Z,63.13
2023-02-17T05:33:19.010Z,69.77
2023-02-17T05:35:48.220Z,73.40
2023-02-17T05:38:16.150Z,68.63
2023-02-17T05:40:44.077Z,69.47
2023-02-17T05:43:12.017Z,70.17
2023-02-17T05:45:39.901Z,68.63
2023-02-17T05:48:07.877Z,69.07
2023-02-17T05:50:35.711Z,75.77
2023-02-17T05:53:05.290Z,66.87
2023-02-17T05:55:33.182Z,73.57
2023-02-17T05:58:01.134Z,79.37
2023-02-17T06:00:29.054Z,72.17
2023-02-17T06:02:57.194Z,71.60
2023-02-17T06:05:25.134Z,71.60
2023-02-17T06:07:52.993Z,73.80
2023-02-17T06:10:22.698Z,72.40
2023-02-17T06:12:50.618Z,68.90
2023-02-17T06:15:18.780Z,74.10
2023-02-17T06:17:46.637Z,90.30
2023-02-17T06:20:15.011Z,102.07
2023-02-17T06:22:43.258Z,95.60
2023-02-17T06:25:11.303Z,82.57
2023-02-17T06:27:42.099Z,71.20
2023-02-17T06:30:10.886Z,77.00
2023-02-17T06:32:38.799Z,79.70
2023-02-17T06:35:07.238Z,84.57
2023-02-17T06:37:35.087Z,75.60
2023-02-17T06:40:03.038Z,76.43
2023-02-17T06:42:30.951Z,77.93
2023-02-17T06:45:00.871Z,76.53
2023-02-17T06:47:28.876Z,78.50
2023-02-17T06:49:56.718Z,73.30
2023-02-17T06:52:24.680Z,67.47
2023-02-17T06:54:52.720Z,79.23
2023-02-17T06:57:20.679Z,69.67
2023-02-17T06:59:48.557Z,68.03
2023-02-17T07:02:17.943Z,63.20
2023-02-17T07:04:45.894Z,61.57
2023-02-17T07:07:13.826Z,64.37
2023-02-17T07:09:41.993Z,59.50
2023-02-17T07:12:10.153Z,59.20
2023-02-17T07:14:38.093Z,70.47
2023-02-17T07:17:06.170Z,72.90
2023-02-17T07:19:35.402Z,68.93
2023-02-17T07:22:03.777Z,91.70
2023-02-17T07:24:31.730Z,79.83
2023-02-17T07:27:00.860Z,77.43
2023-02-17T07:29:29.089Z,83.13
2023-02-17T07:31:57.054Z,86.77
2023-02-17T07:34:25.233Z,75.27
2023-02-17T07:36:54.443Z,80.77
2023-02-17T07:39:22.362Z,74.60
2023-02-17T07:41:50.220Z,73.20
2023-02-17T07:44:19.648Z,69.83
2023-02-17T07:46:47.623Z,78.27
2023-02-17T07:49:15.618Z,78.73
2023-02-17T07:51:43.559Z,76.00
2023-02-17T07:54:18.933Z,78.10
2023-02-17T07:56:46.853Z,78.73
2023-02-17T07:59:15.617Z,81.00
2023-02-17T08:01:43.844Z,66.63
2023-02-17T08:04:11.891Z,70.97
2023-02-17T08:06:40.702Z,77.77
2023-02-17T08:09:25.966Z,76.63
2023-02-17T08:12:12.646Z,74.40
2023-02-17T08:14:40.645Z,76.47
2023-02-17T08:17:09.052Z,71.27
2023-02-17T08:19:47.556Z,76.27
2023-02-17T08:22:17.368Z,70.50
2023-02-17T08:24:45.480Z,76.60
2023-02-17T08:27:15.851Z,69.40
2023-02-17T08:29:44.442Z,76.27
2023-02-17T08:32:12.810Z,76.43
2023-02-17T08:34:40.827Z,78.20
2023-02-17T08:37:09.036Z,71.00
2023-02-17T08:39:37.942Z,67.80
2023-02-17T08:42:06.811Z,73.20
2023-02-17T08:44:37.645Z,72.73
2023-02-17T08:47:06.752Z,69.30
2023-02-17T08:49:34.904Z,67.90
2023-02-17T08:52:03.071Z,62.90
2023-02-17T08:54:31.016Z,62.30
2023-02-17T08:56:59.593Z,61.67
2023-02-17T08:59:27.474Z,62.50
2023-02-17T09:01:56.745Z,65.07
2023-02-17T09:04:24.833Z,62.77
2023-02-17T09:06:55.972Z,64.77
2023-02-17T09:09:26.791Z,65.27
2023-02-17T09:11:55.747Z,69.83
2023-02-17T09:14:25.057Z,60.50
2023-02-17T09:16:53.657Z,64.13
2023-02-17T09:19:23.305Z,61.60
2023-02-17T09:21:51.381Z,62.10
2023-02-17T09:24:19.732Z,63.77
2023-02-17T09:26:47.563Z,59.23
2023-02-17T09:29:15.563Z,65.07
2023-02-17T09:31:44.021Z,60.30
2023-02-17T09:34:11.980Z,61.00
2023-02-17T09:36:43.186Z,66.47
2023-02-17T09:39:13.891Z,58.40
2023-02-17T09:41:45.236Z,63.20
2023-02-17T09:44:21.741Z,61.97
2023-02-17T09:47:02.268Z,57.30
2023-02-17T09:49:37.309Z,61.67
2023-02-17T09:52:13.736Z,61.90
2023-02-17T09:54:50.622Z,57.57
2023-02-17T09:57:22.820Z,63.13
2023-02-17T09:59:55.131Z,59.23
2023-02-17T10:02:28.617Z,61.33
2023-02-17T10:04:58.960Z,60.27
2023-02-17T10:07:33.182Z,69.33
2023-02-17T10:10:08.355Z,59.40
2023-02-17T10:12:41.252Z,66.90
2023-02-17T10:15:17.852Z,61.90
2023-02-17T10:17:51.759Z,58.10
2023-02-17T10:20:24.547Z,58.17
2023-02-17T10:23:00.894Z,58.40
2023-02-17T10:25:45.634Z,57.50
2023-02-17T10:28:22.898Z,52.70
2023-02-17T10:31:00.994Z,63.40
2023-02-17T10:33:35.804Z,56.90
2023-02-17T10:36:13.114Z,59.20
2023-02-17T10:38:51.238Z,61.20
2023-02-17T10:41:23.809Z,62.27
2023-02-17T10:43:52.423Z,58.87
2023-02-17T10:46:29.182Z,60.47
2023-02-17T10:49:01.570Z,58.20
2023-02-17T10:51:31.921Z,57.30
2023-02-17T10:54:04.796Z,57.77
2023-02-17T10:56:36.876Z,53.20
2023-02-17T10:59:09.925Z,59.13
2023-02-17T11:01:38.211Z,56.33
2023-02-17T11:04:08.714Z,54.60
2023-02-17T11:06:42.344Z,47.10
2023-02-17T11:09:21.299Z,54.27
2023-02-17T11:11:58.482Z,54.73
2023-02-17T11:14:28.910Z,60.30
2023-02-17T11:17:00.247Z,60.47
2023-02-17T11:19:30.559Z,52.20
2023-02-17T11:22:00.046Z,58.87
2023-02-17T11:24:31.238Z,52.17
2023-02-17T11:27:01.328Z,53.90
2023-02-17T11:29:30.454Z,56.03
2023-02-17T11:32:00.279Z,53.80
2023-02-17T11:34:30.473Z,56.20
2023-02-17T11:37:00.667Z,55.50
2023-02-17T11:39:30.257Z,55.33
2023-02-17T11:41:58.544Z,53.57
2023-02-17T11:44:28.009Z,59.07
2023-02-17T11:47:07.026Z,54.70
2023-02-17T11:49:58.478Z,52.93
2023-02-17T11:52:38.361Z,52.10
2023-02-17T11:55:19.092Z,47.33
2023-02-17T11:58:05.422Z,45.17
2023-02-17T12:00:43.481Z,42.80
2023-02-17T12:03:36.949Z,47.40
2023-02-17T12:06:13.435Z,44.30
2023-02-17T12:08:56.313Z,43.33
2023-02-17T12:11:37.463Z,48.03
2023-02-17T12:14:19.865Z,45.20
2023-02-17T12:16:56.520Z,39.90
2023-02-17T12:19:41.273Z,48.70
2023-02-17T12:22:18.278Z,42.23
2023-02-17T12:24:57.293Z,42.07
2023-02-17T12:27:39.387Z,45.87
2023-02-17T12:30:25.018Z,43.97
2023-02-17T12:33:18.146Z,41.60
2023-02-17T12:35:52.836Z,36.13
2023-02-17T12:38:26.866Z,40.57
2023-02-17T12:40:59.483Z,39.07
2023-02-17T12:43:35.356Z,44.10
2023-02-17T12:46:08.977Z,38.97
2023-02-17T12:48:41.773Z,42.37
2023-02-17T12:51:16.402Z,39.93
2023-02-17T12:53:50.050Z,40.47
2023-02-17T12:56:41.712Z,37.30
2023-02-17T12:59:17.134Z,40.50
2023-02-17T13:01:54.116Z,41.10
2023-02-17T13:04:26.218Z,31.73
2023-02-17T13:07:01.760Z,38.10
2023-02-17T13:09:34.264Z,32.83
2023-02-17T13:12:17.300Z,36.50
2023-02-17T13:14:49.282Z,37.00
2023-02-17T13:17:25.991Z,41.73
2023-02-17T13:20:25.011Z,38.80
2023-02-17T13:23:05.255Z,42.43
2023-02-17T13:25:37.667Z,35.40
2023-02-17T13:28:34.266Z,41.07
2023-02-17T13:31:16.178Z,36.10
2023-02-17T13:33:47.460Z,38.67
2023-02-17T13:36:22.381Z,38.87
2023-02-17T13:38:59.817Z,39.50
2023-02-17T13:41:28.772Z,40.33
2023-02-17T13:43:56.840Z,40.83
2023-02-17T13:46:27.729Z,38.20
2023-02-17T13:49:04.393Z,40.73
2023-02-17T13:51:33.918Z,42.07
2023-02-17T13:54:10.050Z,43.47
2023-02-17T13:56:38.126Z,43.10
2023-02-17T13:59:11.093Z,44.87
2023-02-17T14:01:43.252Z,39.67
2023-02-17T14:04:23.213Z,39.50
2023-02-17T14:06:52.681Z,41.30
2023-02-17T14:09:26.211Z,36.40
2023-02-17T14:11:55.430Z,38.57
2023-02-17T14:14:25.819Z,39.80
2023-02-17T14:17:01.648Z,44.13
2023-02-17T14:19:30.551Z,36.70
2023-02-17T14:22:01.337Z,37.87
2023-02-17T14:24:32.010Z,47.67
2023-02-17T14:27:03.202Z,82.43
2023-02-17T14:29:41.864Z,75.60
2023-02-17T14:32:29.256Z,42.23
2023-02-17T14:35:08.370Z,45.33
2023-02-17T14:37:36.999Z,41.40
2023-02-17T14:40:07.897Z,34.63
2023-02-17T14:42:35.825Z,38.10
2023-02-17T14:45:03.778Z,42.10
2023-02-17T14:47:33.112Z,47.67
2023-02-17T14:50:00.919Z,49.53
2023-02-17T14:52:28.984Z,42.47
2023-02-17T14:54:56.871Z,37.10
2023-02-17T14:57:28.701Z,40.77
2023-02-17T14:59:57.774Z,69.33
2023-02-17T15:02:25.970Z,44.83
2023-02-17T15:04:55.330Z,43.00
2023-02-17T15:07:24.013Z,44.00
2023-02-17T15:09:51.977Z,45.20
2023-02-17T15:12:22.005Z,45.00
2023-02-17T15:14:49.969Z,40.20
2023-02-17T15:17:18.017Z,43.20
2023-02-17T15:19:45.927Z,45.80
2023-02-17T15:22:15.636Z,45.50
2023-02-17T15:24:43.570Z,44.17
2023-02-17T15:27:14.960Z,42.40
2023-02-17T15:29:42.787Z,47.87
2023-02-17T15:32:18.806Z,45.87
2023-02-17T15:34:47.081Z,38.90
2023-02-17T15:37:16.372Z,48.43
2023-02-17T15:39:44.247Z,43.70
2023-02-17T15:42:15.075Z,48.23
2023-02-17T15:44:46.816Z,47.00
2023-02-17T15:47:18.251Z,45.20
2023-02-17T15:49:46.396Z,41.83
2023-02-17T15:52:16.191Z,43.13
2023-02-17T15:54:44.687Z,41.27
2023-02-17T15:57:22.289Z,44.60
2023-02-17T15:59:50.595Z,46.20
2023-02-17T16:02:21.418Z,42.20
2023-02-17T16:04:49.935Z,44.33
2023-02-17T16:07:19.460Z,46.10
2023-02-17T16:09:47.342Z,55.70
2023-02-17T16:12:18.868Z,54.30
2023-02-17T16:14:47.262Z,50.13
2023-02-17T16:17:17.609Z,52.23
2023-02-17T16:19:45.610Z,52.73
2023-02-17T16:22:14.196Z,53.03
2023-02-17T16:24:43.705Z,45.77
2023-02-17T16:27:16.168Z,47.23
2023-02-17T16:29:44.560Z,48.37
2023-02-17T16:32:13.327Z,46.10
2023-02-17T16:34:41.900Z,44.27
2023-02-17T16:37:15.874Z,48.37
2023-02-17T16:39:45.962Z,46.77
2023-02-17T16:42:15.504Z,53.43
2023-02-17T16:44:44.257Z,47.40
2023-02-17T16:47:20.539Z,51.63
2023-02-17T16:49:50.258Z,49.40
2023-02-17T16:52:24.861Z,55.80
2023-02-17T16:54:54.573Z,50.57
2023-02-17T16:57:23.127Z,55.13
2023-02-17T16:59:51.201Z,54.60
2023-02-17T17:02:21.532Z,50.50
2023-02-17T17:04:49.602Z,58.97
2023-02-17T17:07:18.057Z,54.77
2023-02-17T17:10:06.985Z,54.67
2023-02-17T17:12:35.547Z,53.33
2023-02-17T17:15:03.895Z,61.90
2023-02-17T17:17:37.926Z,68.80
2023-02-17T17:20:06.730Z,76.87
2023-02-17T17:22:34.712Z,62.97
2023-02-17T17:25:02.721Z,58.47
2023-02-17T17:27:30.638Z,62.30
2023-02-17T17:29:59.960Z,63.37
2023-02-17T17:32:29.043Z,64.47
2023-02-17T17:34:57.034Z,62.17
2023-02-17T17:37:24.918Z,66.90
2023-02-17T17:39:52.785Z,80.63
2023-02-17T17:42:20.662Z,65.80
2023-02-17T17:44:48.534Z,76.83
2023-02-17T17:47:29.893Z,71.00
2023-02-17T17:49:58.763Z,61.93
2023-02-17T17:52:26.925Z,66.40
2023-02-17T17:54:54.842Z,64.87
2023-02-17T17:57:23.239Z,64.90
2023-02-17T17:59:51.235Z,60.53
2023-02-17T18:02:20.573Z,57.13
2023-02-17T18:04:48.708Z,64.60
2023-02-17T18:07:17.066Z,63.73
2023-02-17T18:09:45.165Z,58.27
2023-02-17T18:12:17.123Z,67.00
2023-02-17T18:14:45.849Z,66.13
2023-02-17T18:17:15.373Z,59.43
2023-02-17T18:19:46.269Z,62.33
2023-02-17T18:22:14.259Z,64.03
2023-02-17T18:24:42.223Z,58.20
2023-02-17T18:27:10.085Z,59.30
2023-02-17T18:29:38.329Z,62.80
2023-02-17T18:32:06.454Z,63.07
2023-02-17T18:34:34.439Z,63.60
2023-02-17T18:37:03.704Z,63.40
2023-02-17T18:39:31.600Z,60.40
2023-02-17T18:41:59.566Z,62.70
2023-02-17T18:44:27.613Z,61.50
2023-02-17T18:46:55.508Z,61.23
2023-02-17T18:49:23.380Z,60.50
2023-02-17T18:51:51.825Z,62.03
2023-02-17T18:54:21.132Z,59.33
2023-02-17T18:56:48.978Z,59.60
2023-02-17T18:59:16.991Z,55.87
2023-02-17T19:01:45.060Z,64.60
2023-02-17T19:04:13.034Z,65.03
2023-02-17T19:06:41.178Z,75.73
2023-02-17T19:09:09.526Z,71.73
2023-02-17T19:11:38.794Z,68.40
2023-02-17T19:14:06.687Z,60.73
2023-02-17T19:16:35.114Z,59.00
2023-02-17T19:19:03.140Z,60.23
2023-02-17T19:21:31.172Z,56.17
2023-02-17T19:23:58.987Z,59.83
2023-02-17T19:26:26.877Z,58.70
2023-02-17T19:28:56.104Z,81.77
2023-02-17T19:31:24.644Z,67.90
2023-02-17T19:33:52.526Z,61.77
2023-02-17T19:36:22.182Z,63.37
2023-02-17T19:38:51.241Z,66.43
2023-02-17T19:41:20.691Z,57.97
2023-02-17T19:43:48.781Z,65.47
2023-02-17T19:46:21.093Z,59.73
2023-02-17T19:48:49.164Z,67.73
2023-02-17T19:51:17.050Z,67.93
2023-02-17T19:53:45.020Z,64.93
2023-02-17T19:56:15.229Z,64.60
2023-02-17T19:58:44.150Z,64.20
2023-02-17T20:01:13.593Z,66.80
2023-02-17T20:03:43.025Z,69.70
2023-02-17T20:06:13.012Z,65.47
2023-02-17T20:08:40.964Z,61.13
2023-02-17T20:11:10.590Z,64.77
2023-02-17T20:13:45.659Z,61.87
2023-02-17T20:16:15.932Z,65.23
2023-02-17T20:18:48.257Z,68.63
2023-02-17T20:21:17.925Z,65.93
2023-02-17T20:23:46.030Z,60.10
2023-02-17T20:26:16.894Z,94.40
2023-02-17T20:28:44.818Z,91.47
2023-02-17T20:31:13.530Z,82.07
2023-02-17T20:33:41.858Z,68.00
2023-02-17T20:36:11.853Z,68.47
2023-02-17T20:38:40.051Z,66.03
2023-02-17T20:41:09.782Z,63.03
2023-02-17T20:43:38.685Z,69.53
2023-02-17T20:46:08.065Z,62.63
2023-02-17T20:48:36.058Z,65.47
2023-02-17T20:51:05.661Z,61.60
2023-02-17T20:53:34.844Z,67.90
2023-02-17T20:56:02.953Z,74.43
2023-02-17T20:58:30.868Z,64.80
2023-02-17T21:00:58.821Z,78.77
2023-02-17T21:03:26.754Z,70.10
2023-02-17T21:05:54.691Z,69.50
2023-02-17T21:08:22.583Z,66.03
2023-02-17T21:10:51.855Z,60.13
2023-02-17T21:13:19.799Z,67.37
2023-02-17T21:15:48.047Z,66.77
2023-02-17T21:18:16.483Z,64.23
2023-02-17T21:20:44.347Z,63.13
2023-02-17T21:23:12.918Z,59.13
2023-02-17T21:25:40.785Z,65.40
2023-02-17T21:28:10.036Z,69.40
2023-02-17T21:30:37.904Z,68.60
2023-02-17T21:33:06.203Z,67.17
2023-02-17T21:35:34.019Z,72.80
2023-02-17T21:38:01.866Z,65.33
2023-02-17T21:40:29.850Z,64.93
2023-02-17T21:43:15.223Z,75.20
2023-02-17T21:45:45.591Z,70.33
2023-02-17T21:48:13.803Z,62.17
2023-02-17T21:50:41.601Z,67.50
2023-02-17T21:53:09.455Z,71.53
2023-02-17T21:55:37.356Z,66.80
2023-02-17T21:58:05.314Z,63.00
2023-02-17T22:00:33.191Z,66.70
2023-02-17T22:03:02.374Z,65.60
2023-02-17T22:05:31.525Z,63.10
2023-02-17T22:07:59.360Z,60.80
2023-02-17T22:10:27.199Z,65.50
2023-02-17T22:12:55.319Z,61.70
2023-02-17T22:15:23.118Z,58.80
2023-02-17T22:17:50.971Z,60.37
2023-02-17T22:20:20.302Z,59.63
2023-02-17T22:22:48.136Z,70.50
2023-02-17T22:25:16.147Z,57.37
2023-02-17T22:27:44.084Z,57.93
2023-02-17T22:30:12.911Z,56.87
2023-02-17T22:32:42.942Z,60.47
2023-02-17T22:35:11.376Z,63.50
2023-02-17T22:37:40.628Z,65.10
2023-02-17T22:40:10.514Z,61.93
2023-02-17T22:42:38.406Z,58.17
2023-02-17T22:45:07.013Z,60.63
2023-02-17T22:47:34.964Z,64.30
2023-02-17T22:50:02.979Z,62.43
2023-02-17T22:52:31.316Z,62.60
2023-02-17T22:55:00.609Z,58.60
2023-02-17T22:57:28.410Z,63.23
2023-02-17T22:59:56.247Z,56.00
2023-02-17T23:02:24.109Z,57.23
2023-02-17T23:04:51.965Z,63.53
2023-02-17T23:07:19.874Z,55.90
2023-02-17T23:09:47.747Z,57.37
2023-02-17T23:12:16.938Z,53.40
2023-02-17T23:14:46.166Z,55.63
2023-02-17T23:17:15.316Z,53.33
2023-02-17T23:19:43.308Z,56.73
2023-02-17T23:22:15.797Z,58.10
2023-02-17T23:24:43.792Z,50.83
2023-02-17T23:27:11.760Z,49.00
2023-02-17T23:29:42.282Z,58.63
2023-02-17T23:32:10.462Z,49.53
2023-02-17T23:34:39.292Z,43.53
2023-02-17T23:37:07.103Z,34.37
2023-02-17T23:39:38.028Z,35.53
2023-02-17T23:42:06.158Z,30.40
2023-02-17T23:44:34.012Z,29.53
2023-02-17T23:47:03.789Z,31.90
2023-02-17T23:49:31.764Z,27.20
2023-02-17T23:51:59.642Z,32.47
2023-02-17T23:54:27.621Z,21.90
2023-02-17T23:56:55.487Z,21.33
2023-02-17T23:59:23.353Z,21.20
